Accueil
METAR-TAF:

METAR-TAF

Aéroports :

Forlì, Italie

Aéroport de Forlì

latitude: 44-12N, longitude: 012-04E, altitude: 27 m

Observation

Le bulletin a été fait il y a 11 heures et 14 minutes, à 16:50 UTC
Vent 1 kt de direction variable
Température 10°C
Humidité 76%
Pression 1021 hPa
Visibilité: 1800 m
Nuages épars à une hauteur de 1500 ft
Nuages fragmentés à une hauteur de 3000 ft
brume

METAR: LIPK 241650Z VRB01KT 1800 BR SCT015 BKN030 10/06 Q1021

Heure: 05:04 (04:04 UTC)


TAF: absent

Observations et prévisions météorologiques de plus de 4000 aéroports (messages METAR et TAF).

Les stations disponibles sont représentées par des disques jaunes et rouges sur la carte.

Passer la souris dessus pour voir le nom de la station.

Cliquer dessus pour voir les observations et prévisions météorologiques.

Pour changer de carte: cliquez sur les boutons verts avec une croix noire pour zoomer, sur le bouton vert avec un tiret pour effectuer un zoom arrière, ou sur les flèches vertes pour les cartes adjacentes.


METAR-TAF: